createdAt,value
2018-12-22T00:01:42.973Z,9.89
2018-12-22T00:04:10.576Z,9.76
2018-12-22T00:06:38.187Z,9.65
2018-12-22T00:09:06.482Z,9.60
2018-12-22T00:11:34.181Z,9.58
2018-12-22T00:14:01.794Z,9.42
2018-12-22T00:16:30.338Z,9.36
2018-12-22T00:18:58.879Z,9.36
2018-12-22T00:21:26.497Z,9.24
2018-12-22T00:23:54.847Z,9.32
2018-12-22T00:26:24.549Z,9.25
2018-12-22T00:28:52.164Z,9.23
2018-12-22T00:31:20.242Z,9.34
2018-12-22T00:33:47.863Z,9.28
2018-12-22T00:36:15.534Z,9.33
2018-12-22T00:38:43.977Z,9.30
2018-12-22T00:41:12.435Z,9.27
2018-12-22T00:43:40.981Z,9.11
2018-12-22T00:46:08.635Z,9.09
2018-12-22T00:48:36.303Z,9.09
2018-12-22T00:51:03.916Z,9.05
2018-12-22T00:53:31.543Z,9.05
2018-12-22T00:55:59.954Z,9.06
2018-12-22T00:58:30.783Z,9.01
2018-12-22T01:00:57.249Z,8.95
2018-12-22T01:03:24.880Z,8.87
2018-12-22T01:05:52.521Z,8.85
2018-12-22T01:08:20.135Z,8.79
2018-12-22T01:10:47.844Z,8.75
2018-12-22T01:13:15.505Z,8.74
2018-12-22T01:15:44.004Z,8.71
2018-12-22T01:18:11.620Z,8.72
2018-12-22T01:20:39.822Z,8.72
2018-12-22T01:23:07.437Z,8.72
2018-12-22T01:25:35.067Z,8.74
2018-12-22T01:28:02.690Z,8.77
2018-12-22T01:30:31.327Z,8.84
2018-12-22T01:32:59.771Z,8.89
2018-12-22T01:35:27.394Z,8.86
2018-12-22T01:37:56.947Z,8.95
2018-12-22T01:40:25.421Z,8.92
2018-12-22T01:42:53.032Z,8.95
2018-12-22T01:45:20.660Z,8.91
2018-12-22T01:47:49.226Z,8.88
2018-12-22T01:50:16.840Z,8.87
2018-12-22T01:52:45.248Z,8.87
2018-12-22T01:55:13.615Z,8.86
2018-12-22T01:57:42.181Z,8.88
2018-12-22T02:00:10.629Z,8.80
2018-12-22T02:02:39.051Z,8.78
2018-12-22T02:05:07.609Z,8.86
2018-12-22T02:07:36.160Z,8.88
2018-12-22T02:10:05.759Z,8.87
2018-12-22T02:12:33.378Z,8.93
2018-12-22T02:15:01.988Z,8.78
2018-12-22T02:17:30.516Z,8.75
2018-12-22T02:19:59.017Z,8.71
2018-12-22T02:22:27.430Z,8.67
2018-12-22T02:24:57.137Z,8.55
2018-12-22T02:27:25.257Z,8.48
2018-12-22T02:29:52.921Z,8.50
2018-12-22T02:32:20.578Z,8.36
2018-12-22T02:34:49.126Z,8.30
2018-12-22T02:37:16.775Z,8.26
2018-12-22T02:39:44.388Z,8.13
2018-12-22T02:42:12.002Z,8.01
2018-12-22T02:44:39.665Z,7.93
2018-12-22T02:47:08.211Z,7.82
2018-12-22T02:49:35.836Z,7.74
2018-12-22T02:52:03.457Z,7.68
2018-12-22T02:54:32.058Z,7.67
2018-12-22T02:56:59.687Z,7.60
2018-12-22T02:59:27.324Z,7.53
2018-12-22T03:01:54.937Z,7.59
2018-12-22T03:04:24.425Z,7.58
2018-12-22T03:06:52.045Z,7.58
2018-12-22T03:09:20.604Z,7.55
2018-12-22T03:11:49.009Z,7.53
2018-12-22T03:14:17.600Z,7.54
2018-12-22T03:16:45.233Z,7.49
2018-12-22T03:19:13.810Z,7.59
2018-12-22T03:21:42.371Z,7.64
2018-12-22T03:24:10.833Z,7.74
2018-12-22T03:26:39.288Z,7.75
2018-12-22T03:29:15.284Z,7.80
2018-12-22T03:31:37.724Z,7.79
2018-12-22T03:34:06.303Z,7.83
2018-12-22T03:36:34.696Z,7.86
2018-12-22T03:39:02.317Z,7.92
2018-12-22T03:41:31.075Z,8.00
2018-12-22T03:43:59.543Z,8.01
2018-12-22T03:46:28.115Z,8.02
2018-12-22T03:48:57.025Z,8.02
2018-12-22T03:51:26.263Z,8.03
2018-12-22T03:53:53.877Z,8.13
2018-12-22T03:56:21.515Z,8.09
2018-12-22T03:58:49.135Z,8.12
2018-12-22T04:01:16.765Z,8.07
2018-12-22T04:03:44.385Z,8.08
2018-12-22T04:06:12.012Z,8.02
2018-12-22T04:08:39.628Z,8.06
2018-12-22T04:11:08.211Z,8.07
2018-12-22T04:13:35.825Z,8.12
2018-12-22T04:16:04.394Z,8.10
2018-12-22T04:18:32.012Z,8.13
2018-12-22T04:20:59.627Z,8.09
2018-12-22T04:23:28.164Z,8.18
2018-12-22T04:25:56.512Z,8.10
2018-12-22T04:28:24.968Z,8.09
2018-12-22T04:30:52.595Z,8.06
2018-12-22T04:33:21.141Z,8.09
2018-12-22T04:35:48.803Z,8.08
2018-12-22T04:38:16.424Z,8.08
2018-12-22T04:40:44.037Z,8.01
2018-12-22T04:43:12.689Z,7.99
2018-12-22T04:45:41.135Z,8.03
2018-12-22T04:48:09.777Z,8.00
2018-12-22T04:50:37.406Z,7.97
2018-12-22T04:53:05.025Z,7.97
2018-12-22T04:55:32.770Z,8.01
2018-12-22T04:58:01.191Z,7.96
2018-12-22T05:00:29.614Z,7.89
2018-12-22T05:02:57.243Z,7.88
2018-12-22T05:05:26.937Z,7.86
2018-12-22T05:07:55.550Z,7.85
2018-12-22T05:10:25.267Z,7.86
2018-12-22T05:12:53.912Z,7.88
2018-12-22T05:15:22.334Z,7.88
2018-12-22T05:17:50.871Z,7.86
2018-12-22T05:20:19.449Z,7.85
2018-12-22T05:22:48.011Z,7.83
2018-12-22T05:25:15.669Z,7.82
2018-12-22T05:27:43.290Z,7.80
2018-12-22T05:30:11.782Z,7.85
2018-12-22T05:32:40.205Z,7.82
2018-12-22T05:35:08.789Z,7.86
2018-12-22T05:37:36.455Z,7.78
2018-12-22T05:40:05.649Z,7.78
2018-12-22T05:42:33.268Z,7.76
2018-12-22T05:45:00.889Z,7.82
2018-12-22T05:47:28.511Z,7.85
2018-12-22T05:49:57.005Z,7.79
2018-12-22T05:52:25.145Z,7.80
2018-12-22T05:54:52.760Z,7.79
2018-12-22T05:57:21.225Z,7.73
2018-12-22T05:59:48.878Z,7.63
2018-12-22T06:02:17.463Z,7.67
2018-12-22T06:04:46.020Z,7.73
2018-12-22T06:07:14.583Z,7.66
2018-12-22T06:09:43.147Z,7.70
2018-12-22T06:12:11.679Z,7.65
2018-12-22T06:14:40.285Z,7.65
2018-12-22T06:17:07.942Z,7.63
2018-12-22T06:19:36.360Z,7.65
2018-12-22T06:22:04.783Z,7.61
2018-12-22T06:24:33.191Z,7.55
2018-12-22T06:27:00.809Z,7.51
2018-12-22T06:29:29.373Z,7.42
2018-12-22T06:31:57.837Z,7.38
2018-12-22T06:34:26.369Z,7.35
2018-12-22T06:36:54.723Z,7.29
2018-12-22T06:39:23.122Z,7.33
2018-12-22T06:41:51.709Z,7.40
2018-12-22T06:44:19.364Z,7.40
2018-12-22T06:46:47.772Z,7.40
2018-12-22T06:49:15.428Z,7.44
2018-12-22T06:51:43.869Z,7.34
2018-12-22T06:54:11.493Z,7.33
2018-12-22T06:56:39.903Z,7.30
2018-12-22T06:59:08.337Z,7.41
2018-12-22T07:01:36.763Z,7.31
2018-12-22T07:04:05.177Z,7.33
2018-12-22T07:06:32.795Z,7.33
2018-12-22T07:09:00.402Z,7.34
2018-12-22T07:11:28.001Z,7.36
2018-12-22T07:13:56.321Z,7.40
2018-12-22T07:16:24.725Z,7.41
2018-12-22T07:18:52.344Z,7.43
2018-12-22T07:21:19.979Z,7.50
2018-12-22T07:23:47.609Z,7.55
2018-12-22T07:26:15.289Z,7.53
2018-12-22T07:28:42.908Z,7.43
2018-12-22T07:31:10.525Z,7.44
2018-12-22T07:33:38.147Z,7.34
2018-12-22T07:36:05.782Z,7.36
2018-12-22T07:38:33.402Z,7.30
2018-12-22T07:41:01.012Z,7.21
2018-12-22T07:43:28.634Z,7.21
2018-12-22T07:45:57.170Z,7.10
2018-12-22T07:48:24.863Z,7.12
2018-12-22T07:50:52.490Z,7.10
2018-12-22T07:53:20.103Z,7.09
2018-12-22T07:55:47.729Z,7.10
2018-12-22T07:58:15.324Z,7.16
2018-12-22T08:00:42.938Z,7.13
2018-12-22T08:03:10.558Z,7.21
2018-12-22T08:05:39.011Z,7.26
2018-12-22T08:08:06.857Z,7.24
2018-12-22T08:10:34.503Z,7.35
2018-12-22T08:13:02.981Z,7.29
2018-12-22T08:15:30.610Z,7.23
2018-12-22T08:17:58.220Z,7.22
2018-12-22T08:20:26.578Z,7.22
2018-12-22T08:22:54.947Z,7.25
2018-12-22T08:25:22.652Z,7.16
2018-12-22T08:27:50.271Z,7.21
2018-12-22T08:30:17.964Z,7.24
2018-12-22T08:32:45.577Z,7.23
2018-12-22T08:35:13.196Z,7.23
2018-12-22T08:37:40.816Z,7.31
2018-12-22T08:40:10.187Z,7.36
2018-12-22T08:42:37.908Z,7.45
2018-12-22T08:45:06.994Z,7.47
2018-12-22T08:47:34.600Z,7.52
2018-12-22T08:50:08.932Z,7.51
2018-12-22T08:52:32.929Z,7.67
2018-12-22T08:55:00.551Z,7.70
2018-12-22T08:57:28.181Z,7.55
2018-12-22T08:59:56.763Z,7.56
2018-12-22T09:02:24.532Z,7.58
2018-12-22T09:04:52.159Z,7.52
2018-12-22T09:07:19.784Z,7.53
2018-12-22T09:09:47.410Z,7.67
2018-12-22T09:12:15.074Z,7.65
2018-12-22T09:14:43.640Z,7.68
2018-12-22T09:17:11.309Z,7.59
2018-12-22T09:19:38.951Z,7.67
2018-12-22T09:22:06.578Z,7.59
2018-12-22T09:24:34.207Z,7.59
2018-12-22T09:27:01.834Z,7.50
2018-12-22T09:29:29.455Z,7.46
2018-12-22T09:31:57.080Z,7.51
2018-12-22T09:34:25.270Z,7.44
2018-12-22T09:36:53.993Z,7.33
2018-12-22T09:39:21.664Z,7.38
2018-12-22T09:41:50.078Z,7.44
2018-12-22T09:44:17.707Z,7.38
2018-12-22T09:46:45.684Z,7.40
2018-12-22T09:49:13.314Z,7.45
2018-12-22T09:51:40.938Z,7.41
2018-12-22T09:54:08.558Z,7.24
2018-12-22T09:56:36.174Z,7.35
2018-12-22T09:59:03.808Z,7.30
2018-12-22T10:01:31.433Z,7.25
2018-12-22T10:03:59.047Z,7.33
2018-12-22T10:06:26.685Z,7.39
2018-12-22T10:08:55.053Z,7.35
2018-12-22T10:11:22.674Z,7.29
2018-12-22T10:13:50.317Z,7.31
2018-12-22T10:16:17.950Z,7.34
2018-12-22T10:18:45.750Z,7.38
2018-12-22T10:21:13.415Z,7.45
2018-12-22T10:23:41.046Z,7.40
2018-12-22T10:26:08.859Z,7.44
2018-12-22T10:28:36.529Z,7.34
2018-12-22T10:31:04.145Z,7.52
2018-12-22T10:33:32.550Z,7.39
2018-12-22T10:36:00.170Z,7.53
2018-12-22T10:38:27.798Z,7.66
2018-12-22T10:40:55.871Z,7.59
2018-12-22T10:43:25.197Z,7.62
2018-12-22T10:45:52.833Z,7.48
2018-12-22T10:48:20.461Z,7.49
2018-12-22T10:50:48.090Z,7.36
2018-12-22T10:53:16.501Z,7.35
2018-12-22T10:55:44.145Z,7.44
2018-12-22T10:58:11.785Z,7.36
2018-12-22T11:00:39.405Z,7.35
2018-12-22T11:03:07.249Z,7.25
2018-12-22T11:05:34.925Z,7.06
2018-12-22T11:08:02.621Z,6.99
2018-12-22T11:10:30.277Z,6.95
2018-12-22T11:12:58.039Z,7.00
2018-12-22T11:15:26.556Z,6.86
2018-12-22T11:17:55.103Z,6.80
2018-12-22T11:20:22.893Z,6.78
2018-12-22T11:22:50.518Z,6.81
2018-12-22T11:25:18.228Z,6.67
2018-12-22T11:27:45.846Z,6.63
2018-12-22T11:30:16.843Z,6.70
2018-12-22T11:32:44.546Z,6.76
2018-12-22T11:35:12.207Z,6.79
2018-12-22T11:37:39.837Z,6.77
2018-12-22T11:40:09.318Z,6.75
2018-12-22T11:42:37.016Z,6.81
2018-12-22T11:45:07.314Z,6.69
2018-12-22T11:47:38.198Z,6.81
2018-12-22T11:50:13.515Z,6.74
2018-12-22T11:52:41.139Z,6.68
2018-12-22T11:55:08.919Z,6.75
2018-12-22T11:57:36.533Z,6.80
2018-12-22T12:00:05.914Z,6.70
2018-12-22T12:02:33.539Z,6.85
2018-12-22T12:05:01.164Z,6.91
2018-12-22T12:07:29.579Z,6.97
2018-12-22T12:09:58.134Z,6.97
2018-12-22T12:12:26.688Z,6.90
2018-12-22T12:14:55.922Z,6.96
2018-12-22T12:17:28.308Z,6.85
2018-12-22T12:19:57.799Z,6.78
2018-12-22T12:22:26.329Z,6.88
2018-12-22T12:24:54.911Z,6.92
2018-12-22T12:27:22.528Z,7.01
2018-12-22T12:29:50.968Z,6.98
2018-12-22T12:32:18.581Z,6.97
2018-12-22T12:34:46.192Z,6.89
2018-12-22T12:37:13.809Z,6.89
2018-12-22T12:39:42.344Z,6.74
2018-12-22T12:42:10.122Z,6.79
2018-12-22T12:44:39.723Z,6.69
2018-12-22T12:47:08.287Z,6.65
2018-12-22T12:49:36.841Z,6.63
2018-12-22T12:52:06.229Z,6.52
2018-12-22T12:54:34.767Z,6.49
2018-12-22T12:57:03.260Z,6.47
2018-12-22T12:59:31.921Z,6.50
2018-12-22T13:02:01.323Z,6.54
2018-12-22T13:04:30.180Z,6.50
2018-12-22T13:06:57.928Z,6.46
2018-12-22T13:09:26.655Z,6.47
2018-12-22T13:11:56.129Z,6.47
2018-12-22T13:14:23.815Z,6.31
2018-12-22T13:16:51.434Z,6.34
2018-12-22T13:19:20.001Z,6.34
2018-12-22T13:21:48.465Z,6.44
2018-12-22T13:24:16.167Z,6.58
2018-12-22T13:26:46.675Z,6.53
2018-12-22T13:29:15.253Z,6.52
2018-12-22T13:31:42.923Z,6.42
2018-12-22T13:34:10.546Z,6.48
2018-12-22T13:36:39.186Z,6.40
2018-12-22T13:39:07.821Z,6.43
2018-12-22T13:41:36.861Z,6.46
2018-12-22T13:44:05.483Z,6.54
2018-12-22T13:46:33.893Z,6.29
2018-12-22T13:49:01.785Z,6.22
2018-12-22T13:51:29.498Z,6.15
2018-12-22T13:53:57.188Z,6.18
2018-12-22T13:56:25.367Z,6.15
2018-12-22T13:58:53.060Z,6.09
2018-12-22T14:01:20.671Z,6.17
2018-12-22T14:03:49.067Z,6.14
2018-12-22T14:06:16.685Z,6.10
2018-12-22T14:08:44.344Z,6.05
2018-12-22T14:11:11.988Z,6.07
2018-12-22T14:13:40.641Z,6.13
2018-12-22T14:16:10.180Z,6.11
2018-12-22T14:18:41.489Z,6.19
2018-12-22T14:21:09.376Z,6.22
2018-12-22T14:23:49.566Z,6.24
2018-12-22T14:26:17.224Z,6.19
2018-12-22T14:28:45.646Z,6.18
2018-12-22T14:31:13.260Z,6.20
2018-12-22T14:33:41.342Z,6.26
2018-12-22T14:36:09.479Z,6.21
2018-12-22T14:38:37.102Z,6.18
2018-12-22T14:41:04.714Z,6.13
2018-12-22T14:43:33.142Z,6.04
2018-12-22T14:46:01.718Z,6.04
2018-12-22T14:48:29.331Z,5.98
2018-12-22T14:50:56.985Z,5.97
2018-12-22T14:53:26.417Z,5.95
2018-12-22T14:55:55.432Z,5.97
2018-12-22T14:58:24.701Z,6.11
2018-12-22T15:00:53.153Z,6.01
2018-12-22T15:03:21.694Z,6.00
2018-12-22T15:05:50.202Z,5.98
2018-12-22T15:08:17.823Z,5.92
2018-12-22T15:10:45.558Z,5.89
2018-12-22T15:13:13.198Z,5.78
2018-12-22T15:15:40.810Z,5.68
2018-12-22T15:18:08.426Z,5.72
2018-12-22T15:20:36.048Z,5.69
2018-12-22T15:23:05.230Z,5.69
2018-12-22T15:25:32.853Z,5.74
2018-12-22T15:28:00.471Z,5.73
2018-12-22T15:30:28.096Z,5.78
2018-12-22T15:32:56.492Z,5.78
2018-12-22T15:35:24.833Z,5.74
2018-12-22T15:37:52.450Z,5.69
2018-12-22T15:40:20.112Z,5.73
2018-12-22T15:42:48.531Z,5.85
2018-12-22T15:45:17.393Z,5.80
2018-12-22T15:47:46.017Z,5.84
2018-12-22T15:50:17.744Z,5.80
2018-12-22T15:52:46.272Z,5.77
2018-12-22T15:55:13.984Z,5.78
2018-12-22T15:57:42.424Z,5.94
2018-12-22T16:00:12.866Z,5.93
2018-12-22T16:02:40.522Z,5.86
2018-12-22T16:05:10.939Z,5.92
2018-12-22T16:07:42.322Z,5.97
2018-12-22T16:10:13.346Z,5.99
2018-12-22T16:12:40.958Z,5.98
2018-12-22T16:15:11.776Z,5.79
2018-12-22T16:17:39.403Z,5.74
2018-12-22T16:20:10.485Z,5.72
2018-12-22T16:22:39.267Z,5.78
2018-12-22T16:25:11.550Z,6.02
2018-12-22T16:27:40.927Z,5.99
2018-12-22T16:30:20.765Z,6.03
2018-12-22T16:32:48.399Z,6.00
2018-12-22T16:35:16.018Z,5.86
2018-12-22T16:37:43.652Z,5.97
2018-12-22T16:40:12.944Z,5.98
2018-12-22T16:42:40.950Z,5.96
2018-12-22T16:45:14.846Z,6.10
2018-12-22T16:47:43.623Z,6.11
2018-12-22T16:50:13.913Z,6.04
2018-12-22T16:52:41.537Z,6.13
2018-12-22T16:55:15.052Z,5.82
2018-12-22T16:57:58.477Z,5.82
2018-12-22T17:00:33.954Z,5.85
2018-12-22T17:03:10.403Z,6.03
2018-12-22T17:05:31.403Z,6.04
2018-12-22T17:07:59.024Z,6.01
2018-12-22T17:10:27.215Z,5.96
2018-12-22T17:12:55.844Z,6.03
2018-12-22T17:15:24.798Z,6.07
2018-12-22T17:17:52.532Z,5.89
2018-12-22T17:20:20.161Z,5.73
2018-12-22T17:23:00.579Z,5.90
2018-12-22T17:25:28.952Z,5.85
2018-12-22T17:27:56.605Z,5.83
2018-12-22T17:30:25.003Z,5.87
2018-12-22T17:32:52.733Z,5.76
2018-12-22T17:35:20.414Z,5.82
2018-12-22T17:37:49.290Z,5.90
2018-12-22T17:40:16.984Z,5.82
2018-12-22T17:42:45.580Z,5.90
2018-12-22T17:45:14.232Z,5.91
2018-12-22T17:47:41.843Z,5.82
2018-12-22T17:50:10.126Z,5.75
2018-12-22T17:52:37.778Z,5.71
2018-12-22T17:55:08.796Z,5.97
2018-12-22T17:57:36.422Z,5.98
2018-12-22T18:00:12.141Z,5.97
2018-12-22T18:02:42.137Z,5.99
2018-12-22T18:05:09.767Z,6.06
2018-12-22T18:07:37.446Z,6.08
2018-12-22T18:10:13.668Z,6.05
2018-12-22T18:12:41.326Z,6.14
2018-12-22T18:15:23.426Z,6.17
2018-12-22T18:17:51.112Z,6.01
2018-12-22T18:20:18.728Z,5.89
2018-12-22T18:22:46.393Z,5.88
2018-12-22T18:25:19.275Z,5.83
2018-12-22T18:27:49.188Z,5.81
2018-12-22T18:30:18.111Z,5.93
2018-12-22T18:32:46.516Z,5.96
2018-12-22T18:35:15.097Z,5.87
2018-12-22T18:37:42.724Z,5.83
2018-12-22T18:40:14.693Z,5.71
2018-12-22T18:42:42.893Z,5.71
2018-12-22T18:45:11.813Z,5.72
2018-12-22T18:47:40.608Z,5.61
2018-12-22T18:50:14.932Z,5.56
2018-12-22T18:52:42.584Z,5.57
2018-12-22T18:55:10.292Z,5.55
2018-12-22T18:57:38.309Z,5.56
2018-12-22T19:00:11.762Z,5.62
2018-12-22T19:02:39.544Z,5.59
2018-12-22T19:05:08.443Z,5.71
2018-12-22T19:07:36.062Z,5.76
2018-12-22T19:10:07.477Z,5.72
2018-12-22T19:12:35.102Z,5.54
2018-12-22T19:15:02.711Z,5.56
2018-12-22T19:17:30.334Z,5.76
2018-12-22T19:19:57.945Z,5.72
2018-12-22T19:22:26.120Z,5.63
2018-12-22T19:24:53.883Z,5.69
2018-12-22T19:27:21.511Z,5.71
2018-12-22T19:29:50.105Z,5.60
2018-12-22T19:32:18.603Z,5.77
2018-12-22T19:34:46.221Z,5.65
2018-12-22T19:37:13.847Z,5.55
2018-12-22T19:39:41.501Z,5.55
2018-12-22T19:42:09.141Z,5.40
2018-12-22T19:44:36.775Z,5.24
2018-12-22T19:47:04.410Z,5.08
2018-12-22T19:49:32.036Z,5.07
2018-12-22T19:51:59.659Z,5.05
2018-12-22T19:54:27.284Z,5.04
2018-12-22T19:56:55.031Z,4.94
2018-12-22T19:59:24.600Z,5.03
2018-12-22T20:01:52.249Z,4.95
2018-12-22T20:04:19.859Z,4.96
2018-12-22T20:06:47.498Z,4.93
2018-12-22T20:09:15.118Z,4.97
2018-12-22T20:11:42.735Z,5.02
2018-12-22T20:14:10.356Z,4.94
2018-12-22T20:16:37.988Z,4.86
2018-12-22T20:19:05.629Z,4.81
2018-12-22T20:21:33.263Z,4.77
2018-12-22T20:24:00.892Z,4.84
2018-12-22T20:26:28.505Z,5.06
2018-12-22T20:28:56.179Z,5.29
2018-12-22T20:31:23.900Z,5.21
2018-12-22T20:33:51.551Z,5.16
2018-12-22T20:36:19.173Z,5.28
2018-12-22T20:38:46.793Z,5.26
2018-12-22T20:41:14.435Z,5.14
2018-12-22T20:43:42.044Z,5.21
2018-12-22T20:46:09.666Z,5.30
2018-12-22T20:48:37.757Z,5.46
2018-12-22T20:51:05.373Z,5.28
2018-12-22T20:53:33.012Z,5.30
2018-12-22T20:56:00.624Z,5.38
2018-12-22T20:58:28.279Z,5.23
2018-12-22T21:00:56.338Z,5.27
2018-12-22T21:03:41.854Z,5.17
2018-12-22T21:06:15.381Z,4.94
2018-12-22T21:08:43.006Z,4.96
2018-12-22T21:11:11.686Z,4.92
2018-12-22T21:13:39.322Z,5.05
2018-12-22T21:16:06.952Z,5.16
2018-12-22T21:18:35.564Z,5.04
2018-12-22T21:21:04.098Z,5.17
2018-12-22T21:23:31.727Z,5.30
2018-12-22T21:26:00.252Z,5.22
2018-12-22T21:28:27.885Z,5.29
2018-12-22T21:30:56.472Z,5.09
2018-12-22T21:33:25.038Z,5.17
2018-12-22T21:35:54.607Z,5.21
2018-12-22T21:38:22.259Z,5.04
2018-12-22T21:40:50.165Z,5.05
2018-12-22T21:43:18.027Z,5.32
2018-12-22T21:45:45.646Z,5.32
2018-12-22T21:48:14.231Z,5.40
2018-12-22T21:50:41.848Z,5.49
2018-12-22T21:53:10.270Z,5.41
2018-12-22T21:55:37.933Z,5.42
2018-12-22T21:58:06.521Z,5.38
2018-12-22T22:00:34.159Z,5.26
2018-12-22T22:03:02.691Z,5.40
2018-12-22T22:05:30.323Z,5.20
2018-12-22T22:07:58.759Z,5.17
2018-12-22T22:10:27.326Z,5.23
2018-12-22T22:12:54.998Z,5.05
2018-12-22T22:15:22.609Z,4.92
2018-12-22T22:17:50.231Z,5.05
2018-12-22T22:20:17.930Z,5.17
2018-12-22T22:22:45.543Z,5.19
2018-12-22T22:25:13.182Z,5.26
2018-12-22T22:27:40.804Z,5.38
2018-12-22T22:30:09.261Z,5.43
2018-12-22T22:32:36.875Z,5.40
2018-12-22T22:35:04.668Z,5.34
2018-12-22T22:37:32.284Z,5.11
2018-12-22T22:40:00.753Z,4.98
2018-12-22T22:42:28.379Z,5.05
2018-12-22T22:44:56.011Z,4.98
2018-12-22T22:47:23.955Z,4.92
2018-12-22T22:49:52.378Z,4.79
2018-12-22T22:52:19.999Z,4.64
2018-12-22T22:54:48.414Z,4.50
2018-12-22T22:57:16.953Z,4.42
2018-12-22T22:59:44.583Z,4.38
2018-12-22T23:02:13.024Z,4.39
2018-12-22T23:04:40.823Z,4.62
2018-12-22T23:07:08.488Z,4.62
2018-12-22T23:09:36.972Z,4.62
2018-12-22T23:12:04.595Z,4.48
2018-12-22T23:14:32.407Z,4.29
2018-12-22T23:17:00.220Z,4.15
2018-12-22T23:19:28.026Z,4.00
2018-12-22T23:21:56.660Z,3.90
2018-12-22T23:24:25.164Z,3.87
2018-12-22T23:26:53.790Z,3.89
2018-12-22T23:29:22.284Z,3.92
2018-12-22T23:31:50.074Z,3.87
2018-12-22T23:34:17.872Z,4.07
2018-12-22T23:36:45.775Z,4.25
2018-12-22T23:39:14.438Z,4.54
2018-12-22T23:41:42.087Z,4.62
2018-12-22T23:44:10.798Z,4.73
2018-12-22T23:46:38.476Z,4.65
2018-12-22T23:49:06.194Z,4.78
2018-12-22T23:51:34.801Z,4.82
2018-12-22T23:54:03.111Z,4.82
2018-12-22T23:56:31.818Z,4.89
2018-12-22T23:58:59.610Z,5.01
